createdAt,value
2023-04-16T00:04:35.574Z,100077.39
2023-04-16T00:09:38.179Z,100077.14
2023-04-16T00:14:40.722Z,100078.77
2023-04-16T00:19:43.303Z,100083.19
2023-04-16T00:24:45.795Z,100083.08
2023-04-16T00:29:48.338Z,100083.91
2023-04-16T00:34:50.899Z,100082.92
2023-04-16T00:39:53.486Z,100089.66
2023-04-16T00:44:56.000Z,100088.80
2023-04-16T00:49:58.654Z,100092.30
2023-04-16T00:55:01.450Z,100091.62
2023-04-16T01:00:04.367Z,100093.30
2023-04-16T01:05:07.098Z,100093.27
2023-04-16T01:10:09.758Z,100090.56
2023-04-16T01:15:12.319Z,100092.52
2023-04-16T01:20:15.041Z,100089.08
2023-04-16T01:25:17.653Z,100084.11
2023-04-16T01:30:20.364Z,100087.83
2023-04-16T01:35:22.936Z,100085.92
2023-04-16T01:40:25.520Z,100085.38
2023-04-16T01:45:28.184Z,100085.05
2023-04-16T01:50:31.361Z,100082.30
2023-04-16T01:55:34.406Z,100080.22
2023-04-16T02:00:36.956Z,100083.39
2023-04-16T02:05:39.477Z,100086.38
2023-04-16T02:10:41.988Z,100088.59
2023-04-16T02:15:46.009Z,100086.98
2023-04-16T02:20:49.807Z,100094.67
2023-04-16T02:25:52.426Z,100095.89
2023-04-16T02:30:55.085Z,100100.39
2023-04-16T02:35:57.790Z,100100.42
2023-04-16T02:41:00.978Z,100100.43
2023-04-16T02:46:03.789Z,100101.83
2023-04-16T02:51:06.378Z,100102.80
2023-04-16T02:56:08.912Z,100104.84
2023-04-16T03:01:11.448Z,100108.55
2023-04-16T03:06:14.049Z,100113.44
2023-04-16T03:11:16.806Z,100120.13
2023-04-16T03:16:19.535Z,100119.96
2023-04-16T03:21:22.245Z,100124.69
2023-04-16T03:26:24.779Z,100124.39
2023-04-16T03:31:27.756Z,100128.63
2023-04-16T03:36:30.964Z,100125.04
2023-04-16T03:41:33.520Z,100127.04
2023-04-16T03:46:36.045Z,100136.86
2023-04-16T03:51:38.619Z,100140.22
2023-04-16T03:56:41.728Z,100142.08
2023-04-16T04:01:44.479Z,100138.74
2023-04-16T04:06:47.286Z,100146.30
2023-04-16T04:11:50.506Z,100146.84
2023-04-16T04:16:53.039Z,100151.56
2023-04-16T04:21:55.686Z,100156.13
2023-04-16T04:26:58.208Z,100158.85
2023-04-16T04:32:01.017Z,100164.06
2023-04-16T04:37:03.577Z,100164.14
2023-04-16T04:42:06.168Z,100169.48
2023-04-16T04:47:08.675Z,100173.73
2023-04-16T04:52:11.850Z,100181.61
2023-04-16T04:57:14.364Z,100185.54
2023-04-16T05:02:17.048Z,100188.73
2023-04-16T05:07:19.660Z,100190.43
2023-04-16T05:12:22.266Z,100193.94
2023-04-16T05:17:24.757Z,100196.64
2023-04-16T05:22:27.293Z,100200.45
2023-04-16T05:27:29.816Z,100200.49
2023-04-16T05:32:32.307Z,100210.38
2023-04-16T05:37:34.818Z,100212.11
2023-04-16T05:42:37.355Z,100217.69
2023-04-16T05:47:39.942Z,100225.01
2023-04-16T05:52:42.537Z,100221.11
2023-04-16T05:57:45.394Z,100222.39
2023-04-16T06:02:48.124Z,100224.10
2023-04-16T06:07:50.795Z,100226.66
2023-04-16T06:12:53.402Z,100225.64
2023-04-16T06:17:56.060Z,100228.38
2023-04-16T06:22:58.653Z,100235.08
2023-04-16T06:28:01.240Z,100238.98
2023-04-16T06:33:04.305Z,100245.85
2023-04-16T06:38:06.958Z,100241.71
2023-04-16T06:43:09.553Z,100245.56
2023-04-16T06:48:12.098Z,100245.39
2023-04-16T06:53:15.585Z,100248.77
2023-04-16T06:58:18.275Z,100249.17
2023-04-16T07:03:21.036Z,100251.77
2023-04-16T07:08:24.441Z,100253.78
2023-04-16T07:13:27.608Z,100261.24
2023-04-16T07:18:30.368Z,100259.35
2023-04-16T07:23:32.931Z,100266.63
2023-04-16T07:28:35.762Z,100271.77
2023-04-16T07:33:38.450Z,100276.27
2023-04-16T07:38:41.076Z,100276.36
2023-04-16T07:43:43.796Z,100280.71
2023-04-16T07:48:46.453Z,100284.85
2023-04-16T07:53:49.056Z,100289.86
2023-04-16T07:58:51.603Z,100289.98
2023-04-16T08:03:54.280Z,100285.52
2023-04-16T08:08:57.074Z,100288.21
2023-04-16T08:13:59.590Z,100295.67
2023-04-16T08:19:02.376Z,100298.22
2023-04-16T08:24:05.402Z,100300.59
2023-04-16T08:29:08.213Z,100302.61
2023-04-16T08:34:11.756Z,100310.25
2023-04-16T08:39:14.500Z,100321.92
2023-04-16T08:44:25.366Z,100325.65
2023-04-16T08:49:28.205Z,100326.73
2023-04-16T08:54:57.615Z,100332.83
2023-04-16T09:00:00.974Z,100335.41
2023-04-16T09:05:07.084Z,100340.92
2023-04-16T09:10:10.655Z,100345.20
2023-04-16T09:15:13.893Z,100343.88
2023-04-16T09:20:16.577Z,100345.97
2023-04-16T09:25:22.318Z,100349.82
2023-04-16T09:30:27.151Z,100347.84
2023-04-16T09:35:45.295Z,100357.86
2023-04-16T09:40:47.901Z,100361.59
2023-04-16T09:45:52.364Z,100363.64
2023-04-16T09:50:55.030Z,100365.73
2023-04-16T09:56:03.254Z,100367.17
2023-04-16T10:01:11.508Z,100375.61
2023-04-16T10:06:16.571Z,100382.90
2023-04-16T10:11:20.547Z,100389.66
2023-04-16T10:16:23.861Z,100391.92
2023-04-16T10:21:33.509Z,100400.30
2023-04-16T10:26:36.610Z,100395.72
2023-04-16T10:31:40.543Z,100401.27
2023-04-16T10:36:43.296Z,100404.68
2023-04-16T10:41:46.205Z,100401.00
2023-04-16T10:46:49.828Z,100405.68
2023-04-16T10:51:53.235Z,100408.91
2023-04-16T10:56:57.350Z,100412.12
2023-04-16T11:02:02.098Z,100419.55
2023-04-16T11:07:07.526Z,100424.45
2023-04-16T11:12:13.118Z,100427.00
2023-04-16T11:17:16.060Z,100428.85
2023-04-16T11:22:18.699Z,100433.64
2023-04-16T11:27:21.279Z,100441.17
2023-04-16T11:32:23.924Z,100434.58
2023-04-16T11:37:34.315Z,100437.59
2023-04-16T11:42:40.307Z,100435.70
2023-04-16T11:47:50.254Z,100440.13
2023-04-16T11:52:55.753Z,100442.83
2023-04-16T11:58:11.696Z,100448.99
2023-04-16T12:03:14.813Z,100454.72
2023-04-16T12:08:30.756Z,100458.92
2023-04-16T12:13:39.760Z,100462.25
2023-04-16T12:18:59.475Z,100464.52
2023-04-16T12:24:02.026Z,100468.86
2023-04-16T12:29:24.827Z,100469.46
2023-04-16T12:34:47.993Z,100468.75
2023-04-16T12:39:49.990Z,100465.60
2023-04-16T12:44:52.484Z,100464.05
2023-04-16T12:49:57.463Z,100468.23
2023-04-16T12:55:01.995Z,100465.80
2023-04-16T13:00:06.617Z,100461.46
2023-04-16T13:05:09.409Z,100468.25
2023-04-16T13:10:12.299Z,100473.06
2023-04-16T13:15:14.855Z,100475.08
2023-04-16T13:20:17.573Z,100470.89
2023-04-16T13:25:20.384Z,100469.26
2023-04-16T13:30:22.996Z,100471.45
2023-04-16T13:35:26.330Z,100480.41
2023-04-16T13:40:28.852Z,100477.63
2023-04-16T13:45:31.719Z,100476.49
2023-04-16T13:50:35.114Z,100476.75
2023-04-16T13:55:37.689Z,100478.17
2023-04-16T14:00:40.422Z,100480.73
2023-04-16T14:05:43.074Z,100479.89
2023-04-16T14:10:45.595Z,100482.54
2023-04-16T14:15:48.251Z,100483.94
2023-04-16T14:20:50.876Z,100488.69
2023-04-16T14:25:53.726Z,100488.05
2023-04-16T14:30:56.299Z,100487.52
2023-04-16T14:36:01.230Z,100486.89
2023-04-16T14:41:05.488Z,100485.99
2023-04-16T14:46:08.340Z,100486.32
2023-04-16T14:51:11.013Z,100488.66
2023-04-16T14:56:13.630Z,100491.19
2023-04-16T15:01:16.448Z,100500.47
2023-04-16T15:06:19.146Z,100499.84
2023-04-16T15:11:21.646Z,100500.62
2023-04-16T15:16:24.434Z,100501.00
2023-04-16T15:21:27.911Z,100502.56
2023-04-16T15:26:30.544Z,100501.08
2023-04-16T15:31:34.237Z,100504.40
2023-04-16T15:36:36.824Z,100504.98
2023-04-16T15:41:53.341Z,100506.46
2023-04-16T15:47:00.406Z,100511.36
2023-04-16T15:52:03.323Z,100517.61
2023-04-16T15:57:06.390Z,100518.48
2023-04-16T16:02:09.061Z,100519.96
2023-04-16T16:07:12.448Z,100523.25
2023-04-16T16:12:15.286Z,100524.13
2023-04-16T16:17:20.026Z,100526.27
2023-04-16T16:22:23.698Z,100528.04
2023-04-16T16:27:26.270Z,100533.52
2023-04-16T16:32:28.892Z,100532.55
2023-04-16T16:37:31.453Z,100536.61
2023-04-16T16:42:34.444Z,100541.48
2023-04-16T16:47:37.204Z,100545.73
2023-04-16T16:52:40.058Z,100547.85
2023-04-16T16:57:42.625Z,100547.14
2023-04-16T17:02:45.976Z,100548.67
2023-04-16T17:07:48.626Z,100545.38
2023-04-16T17:12:51.809Z,100549.21
2023-04-16T17:17:54.368Z,100556.95
2023-04-16T17:22:56.947Z,100562.02
2023-04-16T17:27:59.626Z,100565.44
2023-04-16T17:33:04.491Z,100570.96
2023-04-16T17:38:07.182Z,100569.50
2023-04-16T17:43:09.739Z,100573.13
2023-04-16T17:48:12.306Z,100578.11
2023-04-16T17:53:14.868Z,100580.97
2023-04-16T17:58:17.880Z,100589.94
2023-04-16T18:03:22.067Z,100596.97
2023-04-16T18:08:25.229Z,100600.23
2023-04-16T18:13:27.887Z,100610.03
2023-04-16T18:18:30.589Z,100611.39
2023-04-16T18:23:33.168Z,100609.73
2023-04-16T18:28:35.982Z,100610.54
2023-04-16T18:33:55.476Z,100621.03
2023-04-16T18:39:02.017Z,100625.64
2023-04-16T18:44:05.301Z,100626.52
2023-04-16T18:49:07.917Z,100626.31
2023-04-16T18:54:10.938Z,100631.69
2023-04-16T18:59:13.658Z,100628.17
2023-04-16T19:04:16.500Z,100630.19
2023-04-16T19:09:19.959Z,100630.90
2023-04-16T19:14:22.566Z,100637.73
2023-04-16T19:19:25.100Z,100634.38
2023-04-16T19:24:27.669Z,100633.02
2023-04-16T19:29:34.053Z,100634.14
2023-04-16T19:34:36.654Z,100633.02
2023-04-16T19:39:39.199Z,100629.16
2023-04-16T19:44:41.756Z,100634.36
2023-04-16T19:49:44.430Z,100633.63
2023-04-16T19:54:47.753Z,100630.13
2023-04-16T19:59:50.454Z,100626.66
2023-04-16T20:04:53.215Z,100620.99
2023-04-16T20:09:55.881Z,100619.39
2023-04-16T20:14:59.498Z,100620.10
2023-04-16T20:20:09.679Z,100621.55
2023-04-16T20:25:14.295Z,100622.15
2023-04-16T20:30:16.829Z,100620.76
2023-04-16T20:35:19.376Z,100631.21
2023-04-16T20:40:23.876Z,100633.65
2023-04-16T20:45:32.328Z,100630.65
2023-04-16T20:50:34.967Z,100640.58
2023-04-16T20:55:37.496Z,100641.31
2023-04-16T21:00:40.065Z,100644.72
2023-04-16T21:05:49.822Z,100643.82
2023-04-16T21:10:52.459Z,100646.48
2023-04-16T21:15:55.065Z,100649.33
2023-04-16T21:20:57.663Z,100651.02
2023-04-16T21:26:00.278Z,100652.69
2023-04-16T21:31:02.983Z,100653.00
2023-04-16T21:36:05.851Z,100650.86
2023-04-16T21:41:08.452Z,100648.15
2023-04-16T21:46:11.043Z,100649.48
2023-04-16T21:51:13.998Z,100653.98
2023-04-16T21:56:16.537Z,100655.25
2023-04-16T22:01:19.286Z,100661.21
2023-04-16T22:06:21.868Z,100656.56
2023-04-16T22:11:24.372Z,100658.79
2023-04-16T22:16:27.045Z,100656.92
2023-04-16T22:21:29.706Z,100655.32
2023-04-16T22:26:32.277Z,100655.96
2023-04-16T22:31:34.878Z,100651.65
2023-04-16T22:36:37.512Z,100653.45
2023-04-16T22:41:40.384Z,100653.28
2023-04-16T22:46:44.093Z,100654.16
2023-04-16T22:51:46.624Z,100660.67
2023-04-16T22:56:49.808Z,100668.54
2023-04-16T23:01:52.447Z,100665.16
2023-04-16T23:06:55.630Z,100666.85
2023-04-16T23:11:58.144Z,100668.02
2023-04-16T23:17:01.239Z,100665.05
2023-04-16T23:22:04.525Z,100667.53
2023-04-16T23:27:07.086Z,100669.46
2023-04-16T23:32:09.615Z,100671.79
2023-04-16T23:37:12.111Z,100673.38
2023-04-16T23:42:14.694Z,100677.18
2023-04-16T23:47:17.211Z,100680.30
2023-04-16T23:52:19.698Z,100682.24
2023-04-16T23:57:22.160Z,100674.15
